createdAt,value
2022-08-14T00:02:01.658Z,50.20
2022-08-14T00:04:34.273Z,50.20
2022-08-14T00:07:08.454Z,50.20
2022-08-14T00:09:39.978Z,50.20
2022-08-14T00:12:33.052Z,50.20
2022-08-14T00:15:03.035Z,50.20
2022-08-14T00:17:31.484Z,50.20
2022-08-14T00:20:08.164Z,50.20
2022-08-14T00:22:57.059Z,50.20
2022-08-14T00:25:30.712Z,50.20
2022-08-14T00:28:15.102Z,50.20
2022-08-14T00:30:46.417Z,50.20
2022-08-14T00:33:16.268Z,50.20
2022-08-14T00:36:36.816Z,50.20
2022-08-14T00:38:35.171Z,50.20
2022-08-14T00:41:05.099Z,50.20
2022-08-14T00:43:33.944Z,50.20
2022-08-14T00:46:05.138Z,50.20
2022-08-14T00:48:36.794Z,50.20
2022-08-14T00:51:08.847Z,50.20
2022-08-14T00:53:42.975Z,50.20
2022-08-14T00:56:14.130Z,50.20
2022-08-14T00:58:45.266Z,50.20
2022-08-14T01:01:19.100Z,50.20
2022-08-14T01:03:52.787Z,50.20
2022-08-14T01:06:21.567Z,50.20
2022-08-14T01:08:59.172Z,50.20
2022-08-14T01:11:35.446Z,50.20
2022-08-14T01:14:25.309Z,50.20
2022-08-14T01:16:55.695Z,50.20
2022-08-14T01:19:41.903Z,50.20
2022-08-14T01:22:13.478Z,50.20
2022-08-14T01:24:48.402Z,50.20
2022-08-14T01:27:20.454Z,50.20
2022-08-14T01:30:03.332Z,50.20
2022-08-14T01:32:35.629Z,50.20
2022-08-14T01:35:19.761Z,50.10
2022-08-14T01:37:58.625Z,50.20
2022-08-14T01:40:37.247Z,50.10
2022-08-14T01:43:15.782Z,50.10
2022-08-14T01:45:57.624Z,50.10
2022-08-14T01:48:37.079Z,50.10
2022-08-14T01:51:19.110Z,50.10
2022-08-14T01:53:54.887Z,50.10
2022-08-14T01:56:37.342Z,50.00
2022-08-14T01:59:14.603Z,50.00
2022-08-14T02:01:57.879Z,50.00
2022-08-14T02:04:54.822Z,50.00
2022-08-14T02:07:34.886Z,50.00
2022-08-14T02:10:13.127Z,50.00
2022-08-14T02:12:44.414Z,50.00
2022-08-14T02:15:22.006Z,50.00
2022-08-14T02:17:51.081Z,50.00
2022-08-14T02:20:20.512Z,50.00
2022-08-14T02:22:53.627Z,50.10
2022-08-14T02:25:24.763Z,50.00
2022-08-14T02:28:24.684Z,50.00
2022-08-14T02:30:46.513Z,50.00
2022-08-14T02:33:14.657Z,50.00
2022-08-14T02:35:46.736Z,50.00
2022-08-14T02:38:29.655Z,50.00
2022-08-14T02:41:00.754Z,50.00
2022-08-14T02:43:37.123Z,50.00
2022-08-14T02:46:20.125Z,50.00
2022-08-14T02:49:02.020Z,50.00
2022-08-14T02:51:34.418Z,50.00
2022-08-14T02:54:04.796Z,50.00
2022-08-14T02:57:15.125Z,50.00
2022-08-14T02:59:28.945Z,50.60
2022-08-14T03:02:02.501Z,49.90
2022-08-14T03:04:31.232Z,49.90
2022-08-14T03:07:07.903Z,49.90
2022-08-14T03:10:25.300Z,49.90
2022-08-14T03:12:31.386Z,49.90
2022-08-14T03:15:14.184Z,49.90
2022-08-14T03:17:58.280Z,49.90
2022-08-14T03:20:28.745Z,49.80
2022-08-14T03:23:03.332Z,49.80
2022-08-14T03:25:33.356Z,49.80
2022-08-14T03:28:06.633Z,49.80
2022-08-14T03:30:39.029Z,49.80
2022-08-14T03:33:10.663Z,49.80
2022-08-14T03:36:00.125Z,49.70
2022-08-14T03:39:12.372Z,49.70
2022-08-14T03:41:23.106Z,49.60
2022-08-14T03:43:57.724Z,49.50
2022-08-14T03:46:51.938Z,49.50
2022-08-14T03:49:24.070Z,49.60
2022-08-14T03:51:57.463Z,49.60
2022-08-14T03:54:26.482Z,49.60
2022-08-14T03:56:54.967Z,49.60
2022-08-14T03:59:24.608Z,49.60
2022-08-14T04:02:01.289Z,49.50
2022-08-14T04:04:30.571Z,49.50
2022-08-14T04:07:00.063Z,49.60
2022-08-14T04:09:29.322Z,49.50
2022-08-14T04:11:59.651Z,49.50
2022-08-14T04:14:30.064Z,49.50
2022-08-14T04:16:58.332Z,49.50
2022-08-14T04:19:28.169Z,49.50
2022-08-14T04:22:03.292Z,49.50
2022-08-14T04:24:37.643Z,50.10
2022-08-14T04:27:09.755Z,49.40
2022-08-14T04:29:42.648Z,49.50
2022-08-14T04:33:02.521Z,49.50
2022-08-14T04:35:07.775Z,49.50
2022-08-14T04:37:56.618Z,49.40
2022-08-14T04:40:41.998Z,49.40
2022-08-14T04:43:38.351Z,49.40
2022-08-14T04:46:11.820Z,49.50
2022-08-14T04:48:59.854Z,49.40
2022-08-14T04:51:30.001Z,49.40
2022-08-14T04:54:05.839Z,49.40
2022-08-14T04:56:34.814Z,49.30
2022-08-14T04:59:10.653Z,49.30
2022-08-14T05:01:49.802Z,49.30
2022-08-14T05:04:24.997Z,49.30
2022-08-14T05:06:55.410Z,49.30
2022-08-14T05:09:24.715Z,49.30
2022-08-14T05:13:02.838Z,49.30
2022-08-14T05:14:53.302Z,49.30
2022-08-14T05:17:32.249Z,49.30
2022-08-14T05:21:54.826Z,49.20
2022-08-14T05:23:02.357Z,49.20
2022-08-14T05:25:34.184Z,49.20
2022-08-14T05:28:12.460Z,49.30
2022-08-14T05:30:44.545Z,49.30
2022-08-14T05:33:14.740Z,49.20
2022-08-14T05:35:43.811Z,49.30
2022-08-14T05:38:22.276Z,49.10
2022-08-14T05:40:59.750Z,49.10
2022-08-14T05:43:40.910Z,49.00
2022-08-14T05:46:12.179Z,49.00
2022-08-14T05:48:45.258Z,49.00
2022-08-14T05:51:13.642Z,49.00
2022-08-14T05:53:42.459Z,49.00
2022-08-14T05:56:10.781Z,48.90
2022-08-14T05:58:41.249Z,48.90
2022-08-14T06:01:11.371Z,48.90
2022-08-14T06:03:40.434Z,48.90
2022-08-14T06:06:10.374Z,48.80
2022-08-14T06:08:41.307Z,48.80
2022-08-14T06:11:10.418Z,48.90
2022-08-14T06:13:48.489Z,48.80
2022-08-14T06:16:18.922Z,48.80
2022-08-14T06:18:48.721Z,48.80
2022-08-14T06:21:23.534Z,48.80
2022-08-14T06:23:51.784Z,48.70
2022-08-14T06:26:20.910Z,49.40
2022-08-14T06:28:52.327Z,48.70
2022-08-14T06:31:20.960Z,48.70
2022-08-14T06:35:09.677Z,48.70
2022-08-14T06:36:39.835Z,48.70
2022-08-14T06:39:10.002Z,48.70
2022-08-14T06:41:58.175Z,48.70
2022-08-14T06:44:30.554Z,48.60
2022-08-14T06:47:02.682Z,48.60
2022-08-14T06:49:31.056Z,48.70
2022-08-14T06:52:16.137Z,48.60
2022-08-14T06:54:45.141Z,48.60
2022-08-14T06:57:13.995Z,48.60
2022-08-14T06:59:42.361Z,48.60
2022-08-14T07:02:37.244Z,48.60
2022-08-14T07:05:29.204Z,48.60
2022-08-14T07:07:59.503Z,48.60
2022-08-14T07:10:27.996Z,48.60
2022-08-14T07:13:03.666Z,48.60
2022-08-14T07:15:33.929Z,48.60
2022-08-14T07:18:08.911Z,48.50
2022-08-14T07:20:37.764Z,48.60
2022-08-14T07:23:10.772Z,48.50
2022-08-14T07:25:51.301Z,48.60
2022-08-14T07:28:23.678Z,48.60
2022-08-14T07:30:56.373Z,48.60
2022-08-14T07:33:30.001Z,48.50
2022-08-14T07:36:00.597Z,48.50
2022-08-14T07:38:35.819Z,48.60
2022-08-14T07:41:14.845Z,48.60
2022-08-14T07:43:52.927Z,48.60
2022-08-14T07:46:28.567Z,48.60
2022-08-14T07:48:58.471Z,48.60
2022-08-14T07:51:34.489Z,48.60
2022-08-14T07:54:11.100Z,48.60
2022-08-14T07:56:47.156Z,48.60
2022-08-14T07:59:18.568Z,48.60
2022-08-14T08:01:51.323Z,48.60
2022-08-14T08:04:27.093Z,48.60
2022-08-14T08:06:55.898Z,48.50
2022-08-14T08:09:31.719Z,48.60
2022-08-14T08:12:05.092Z,48.50
2022-08-14T08:14:56.153Z,48.60
2022-08-14T08:17:24.649Z,48.60
2022-08-14T08:19:52.853Z,48.60
2022-08-14T08:22:21.828Z,48.50
2022-08-14T08:24:51.570Z,48.50
2022-08-14T08:27:21.416Z,48.60
2022-08-14T08:29:50.607Z,48.60
2022-08-14T08:32:20.097Z,48.60
2022-08-14T08:34:49.582Z,48.60
2022-08-14T08:37:18.424Z,48.60
2022-08-14T08:40:02.936Z,48.60
2022-08-14T08:42:41.249Z,48.60
2022-08-14T08:45:17.338Z,48.60
2022-08-14T08:47:46.592Z,48.60
2022-08-14T08:50:23.396Z,48.70
2022-08-14T08:53:02.026Z,48.70
2022-08-14T08:55:34.068Z,48.70
2022-08-14T08:58:12.669Z,48.70
2022-08-14T09:00:48.812Z,48.70
2022-08-14T09:03:20.581Z,48.70
2022-08-14T09:05:54.376Z,48.60
2022-08-14T09:08:31.718Z,48.70
2022-08-14T09:11:02.354Z,48.60
2022-08-14T09:13:33.143Z,48.70
2022-08-14T09:16:18.595Z,48.60
2022-08-14T09:18:48.253Z,48.60
2022-08-14T09:21:16.755Z,48.60
2022-08-14T09:24:26.815Z,48.60
2022-08-14T09:26:33.455Z,48.70
2022-08-14T09:29:04.347Z,48.60
2022-08-14T09:31:42.878Z,48.60
2022-08-14T09:34:31.086Z,48.60
2022-08-14T09:37:21.264Z,48.60
2022-08-14T09:40:06.480Z,48.70
2022-08-14T09:42:51.044Z,48.60
2022-08-14T09:45:26.352Z,48.70
2022-08-14T09:47:59.028Z,48.60
2022-08-14T09:50:32.021Z,48.70
2022-08-14T09:53:04.034Z,48.70
2022-08-14T09:55:42.680Z,48.60
2022-08-14T09:58:15.016Z,48.70
2022-08-14T10:00:52.874Z,48.60
2022-08-14T10:03:33.335Z,48.60
2022-08-14T10:06:10.014Z,48.70
2022-08-14T10:08:44.626Z,48.60
2022-08-14T10:11:23.047Z,48.70
2022-08-14T10:13:55.660Z,48.70
2022-08-14T10:16:32.074Z,48.60
2022-08-14T10:19:10.485Z,48.70
2022-08-14T10:23:11.154Z,48.70
2022-08-14T10:24:36.192Z,48.70
2022-08-14T10:27:16.925Z,48.70
2022-08-14T10:29:49.411Z,48.70
2022-08-14T10:32:28.328Z,48.70
2022-08-14T10:35:13.939Z,48.70
2022-08-14T10:37:48.423Z,48.70
2022-08-14T10:40:38.064Z,48.70
2022-08-14T10:43:23.075Z,48.70
2022-08-14T10:46:21.739Z,48.70
2022-08-14T10:49:00.974Z,48.70
2022-08-14T10:51:34.225Z,48.70
2022-08-14T10:54:35.112Z,48.70
2022-08-14T10:56:58.435Z,48.70
2022-08-14T10:59:30.974Z,48.70
2022-08-14T11:02:03.116Z,48.70
2022-08-14T11:04:32.725Z,48.70
2022-08-14T11:07:01.574Z,48.70
2022-08-14T11:09:31.723Z,48.70
2022-08-14T11:12:34.159Z,48.70
2022-08-14T11:14:59.309Z,48.70
2022-08-14T11:17:32.177Z,49.30
2022-08-14T11:20:04.252Z,48.70
2022-08-14T11:22:52.422Z,48.70
2022-08-14T11:25:24.576Z,48.70
2022-08-14T11:28:10.872Z,48.70
2022-08-14T11:30:50.010Z,48.70
2022-08-14T11:33:24.322Z,48.70
2022-08-14T11:35:59.405Z,48.70
2022-08-14T11:38:29.103Z,48.70
2022-08-14T11:40:58.473Z,48.70
2022-08-14T11:43:30.598Z,48.70
2022-08-14T11:46:03.601Z,48.70
2022-08-14T11:49:01.790Z,48.70
2022-08-14T11:51:26.174Z,48.70
2022-08-14T11:54:04.029Z,48.70
2022-08-14T11:56:37.064Z,48.70
2022-08-14T11:59:10.169Z,48.70
2022-08-14T12:01:41.088Z,48.70
2022-08-14T12:04:21.525Z,48.70
2022-08-14T12:07:03.523Z,48.70
2022-08-14T12:09:32.856Z,48.70
2022-08-14T12:12:02.598Z,48.70
2022-08-14T12:14:35.077Z,48.70
2022-08-14T12:17:12.238Z,48.70
2022-08-14T12:19:53.952Z,48.70
2022-08-14T12:22:37.008Z,48.70
2022-08-14T12:25:11.120Z,48.70
2022-08-14T12:27:52.719Z,48.70
2022-08-14T12:30:39.510Z,48.70
2022-08-14T12:33:26.861Z,48.70
2022-08-14T12:35:58.055Z,48.70
2022-08-14T12:38:43.370Z,48.70
2022-08-14T12:41:20.489Z,48.70
2022-08-14T12:43:51.730Z,48.80
2022-08-14T12:46:27.487Z,48.70
2022-08-14T12:48:58.222Z,48.60
2022-08-14T12:51:30.726Z,48.70
2022-08-14T12:54:01.572Z,48.60
2022-08-14T12:56:33.736Z,48.70
2022-08-14T12:59:03.580Z,48.70
2022-08-14T13:02:00.468Z,48.70
2022-08-14T13:04:22.808Z,48.70
2022-08-14T13:06:52.767Z,48.70
2022-08-14T13:09:27.963Z,48.70
2022-08-14T13:12:34.801Z,48.70
2022-08-14T13:14:59.337Z,48.70
2022-08-14T13:17:28.793Z,48.70
2022-08-14T13:20:10.214Z,48.70
2022-08-14T13:22:42.691Z,48.70
2022-08-14T13:25:15.686Z,48.70
2022-08-14T13:27:45.650Z,48.70
2022-08-14T13:30:23.498Z,48.80
2022-08-14T13:32:54.337Z,48.70
2022-08-14T13:35:23.267Z,48.80
2022-08-14T13:37:53.689Z,48.70
2022-08-14T13:40:26.245Z,48.70
2022-08-14T13:42:57.340Z,48.70
2022-08-14T13:45:33.584Z,48.70
2022-08-14T13:48:27.423Z,48.70
2022-08-14T13:51:05.048Z,48.80
2022-08-14T13:53:41.342Z,48.70
2022-08-14T13:56:14.594Z,48.80
2022-08-14T13:58:58.717Z,48.70
2022-08-14T14:01:29.551Z,48.70
2022-08-14T14:03:58.596Z,48.70
2022-08-14T14:06:27.661Z,48.70
2022-08-14T14:08:59.108Z,48.70
2022-08-14T14:11:29.898Z,48.80
2022-08-14T14:14:00.614Z,48.70
2022-08-14T14:16:30.618Z,48.70
2022-08-14T14:19:08.736Z,48.80
2022-08-14T14:21:38.096Z,48.70
2022-08-14T14:24:14.941Z,48.70
2022-08-14T14:26:49.906Z,48.80
2022-08-14T14:29:24.204Z,48.80
2022-08-14T14:31:56.150Z,48.80
2022-08-14T14:34:29.588Z,48.80
2022-08-14T14:37:03.090Z,48.80
2022-08-14T14:39:35.293Z,48.80
2022-08-14T14:42:13.768Z,48.80
2022-08-14T14:44:53.299Z,48.80
2022-08-14T14:47:26.578Z,48.90
2022-08-14T14:49:56.354Z,48.90
2022-08-14T14:52:29.320Z,48.80
2022-08-14T14:55:07.502Z,48.80
2022-08-14T14:57:39.173Z,48.80
2022-08-14T15:00:12.706Z,48.80
2022-08-14T15:02:44.658Z,48.80
2022-08-14T15:05:16.080Z,48.80
2022-08-14T15:07:45.225Z,48.80
2022-08-14T15:10:28.119Z,48.80
2022-08-14T15:13:06.612Z,48.90
2022-08-14T15:15:37.237Z,48.90
2022-08-14T15:18:36.844Z,48.90
2022-08-14T15:20:57.470Z,48.90
2022-08-14T15:23:32.524Z,48.90
2022-08-14T15:26:27.696Z,48.90
2022-08-14T15:29:02.893Z,48.90
2022-08-14T15:31:34.859Z,48.90
2022-08-14T15:34:43.334Z,48.90
2022-08-14T15:37:03.832Z,48.90
2022-08-14T15:39:33.723Z,48.90
2022-08-14T15:42:15.013Z,49.00
2022-08-14T15:44:57.831Z,48.90
2022-08-14T15:47:30.772Z,48.90
2022-08-14T15:50:00.322Z,48.90
2022-08-14T15:52:42.427Z,48.90
2022-08-14T15:55:14.727Z,48.90
2022-08-14T15:58:02.343Z,48.90
2022-08-14T16:00:56.836Z,48.90
2022-08-14T16:03:34.706Z,48.90
2022-08-14T16:06:10.571Z,48.90
2022-08-14T16:08:45.320Z,49.00
2022-08-14T16:11:15.919Z,49.00
2022-08-14T16:13:47.692Z,49.00
2022-08-14T16:16:47.218Z,49.00
2022-08-14T16:19:13.412Z,49.00
2022-08-14T16:22:02.320Z,49.00
2022-08-14T16:24:35.950Z,49.00
2022-08-14T16:27:39.038Z,49.00
2022-08-14T16:33:04.350Z,49.00
2022-08-14T16:35:43.433Z,49.00
2022-08-14T16:38:46.387Z,49.00
2022-08-14T16:41:23.060Z,49.00
2022-08-14T16:43:59.089Z,49.00
2022-08-14T16:46:29.655Z,49.00
2022-08-14T16:49:00.782Z,49.10
2022-08-14T16:51:34.838Z,49.10
2022-08-14T16:54:10.635Z,49.10
2022-08-14T16:56:57.253Z,49.10
2022-08-14T16:59:30.641Z,49.10
2022-08-14T17:02:14.083Z,49.10
2022-08-14T17:04:49.244Z,49.10
2022-08-14T17:07:17.563Z,49.10
2022-08-14T17:09:48.637Z,49.10
2022-08-14T17:12:33.750Z,49.10
2022-08-14T17:15:10.134Z,49.20
2022-08-14T17:17:57.492Z,49.20
2022-08-14T17:20:54.503Z,49.20
2022-08-14T17:23:16.321Z,49.20
2022-08-14T17:25:50.744Z,49.30
2022-08-14T17:28:51.631Z,49.20
2022-08-14T17:31:09.089Z,49.20
2022-08-14T17:33:40.590Z,49.30
2022-08-14T17:36:20.927Z,49.30
2022-08-14T17:39:02.685Z,49.20
2022-08-14T17:41:38.675Z,49.20
2022-08-14T17:44:21.664Z,49.20
2022-08-14T17:46:55.166Z,49.20
2022-08-14T17:49:27.112Z,49.30
2022-08-14T17:52:16.714Z,49.30
2022-08-14T17:54:58.891Z,49.30
2022-08-14T17:57:35.568Z,49.30
2022-08-14T18:00:12.545Z,49.30
2022-08-14T18:02:50.756Z,49.40
2022-08-14T18:05:23.354Z,49.30
2022-08-14T18:08:31.351Z,49.40
2022-08-14T18:10:56.076Z,49.40
2022-08-14T18:13:51.594Z,49.40
2022-08-14T18:16:20.334Z,49.40
2022-08-14T18:18:51.741Z,49.40
2022-08-14T18:21:40.212Z,49.50
2022-08-14T18:24:28.021Z,49.50
2022-08-14T18:27:08.694Z,49.40
2022-08-14T18:29:43.711Z,49.40
2022-08-14T18:32:46.962Z,49.50
2022-08-14T18:35:17.617Z,49.50
2022-08-14T18:37:55.903Z,49.50
2022-08-14T18:40:34.710Z,49.60
2022-08-14T18:43:06.372Z,49.60
2022-08-14T18:45:42.899Z,49.60
2022-08-14T18:48:50.680Z,49.50
2022-08-14T18:51:45.710Z,49.50
2022-08-14T18:54:29.962Z,49.60
2022-08-14T18:57:05.382Z,49.60
2022-08-14T18:59:39.314Z,49.70
2022-08-14T19:02:43.280Z,49.70
2022-08-14T19:05:12.481Z,49.70
2022-08-14T19:07:40.886Z,49.70
2022-08-14T19:10:17.127Z,49.70
2022-08-14T19:13:05.361Z,49.70
2022-08-14T19:15:43.884Z,49.70
2022-08-14T19:18:26.362Z,49.70
2022-08-14T19:20:59.455Z,49.80
2022-08-14T19:23:42.181Z,49.80
2022-08-14T19:26:35.367Z,49.80
2022-08-14T19:29:37.846Z,49.80
2022-08-14T19:32:36.962Z,49.80
2022-08-14T19:35:16.694Z,49.80
2022-08-14T19:37:49.357Z,49.80
2022-08-14T19:40:34.082Z,49.90
2022-08-14T19:43:06.557Z,49.90
2022-08-14T19:45:38.758Z,49.90
2022-08-14T19:48:15.642Z,49.90
2022-08-14T19:50:46.228Z,50.00
2022-08-14T19:53:17.184Z,49.90
2022-08-14T19:55:58.752Z,50.00
2022-08-14T19:58:54.619Z,50.00
2022-08-14T20:01:36.935Z,50.00
2022-08-14T20:04:47.794Z,50.00
2022-08-14T20:07:00.157Z,50.00
2022-08-14T20:11:04.223Z,50.10
2022-08-14T20:12:34.551Z,50.50
2022-08-14T20:15:08.883Z,50.10
2022-08-14T20:17:40.118Z,50.10
2022-08-14T20:20:21.077Z,50.10
2022-08-14T20:23:03.084Z,50.20
2022-08-14T20:25:45.702Z,50.10
2022-08-14T20:28:32.012Z,50.80
2022-08-14T20:31:15.879Z,50.10
2022-08-14T20:34:07.892Z,50.20
2022-08-14T20:36:47.635Z,50.20
2022-08-14T20:39:15.998Z,50.20
2022-08-14T20:41:51.223Z,50.20
2022-08-14T20:44:40.001Z,50.20
2022-08-14T20:47:08.240Z,50.30
2022-08-14T20:49:37.735Z,50.20
2022-08-14T20:52:19.128Z,50.30
2022-08-14T20:54:51.506Z,50.30
2022-08-14T20:57:20.419Z,50.30
2022-08-14T20:59:53.711Z,50.40
2022-08-14T21:02:46.814Z,50.30
2022-08-14T21:05:23.573Z,50.30
2022-08-14T21:08:08.062Z,50.40
2022-08-14T21:10:44.235Z,50.40
2022-08-14T21:14:18.708Z,50.40
2022-08-14T21:16:33.037Z,50.50
2022-08-14T21:19:02.026Z,50.50
2022-08-14T21:21:41.633Z,50.50
2022-08-14T21:24:39.515Z,50.50
2022-08-14T21:27:19.784Z,50.40
2022-08-14T21:29:53.623Z,50.50
2022-08-14T21:32:34.616Z,50.50
2022-08-14T21:35:08.286Z,50.60
2022-08-14T21:37:44.411Z,50.50
2022-08-14T21:40:29.632Z,50.60
2022-08-14T21:43:05.019Z,50.60
2022-08-14T21:45:35.591Z,50.60
2022-08-14T21:48:10.844Z,50.60
2022-08-14T21:51:02.138Z,50.60
2022-08-14T21:53:34.079Z,50.60
2022-08-14T21:56:03.460Z,50.60
2022-08-14T21:58:53.892Z,50.70
2022-08-14T22:01:20.468Z,50.70
2022-08-14T22:03:54.600Z,50.70
2022-08-14T22:06:29.081Z,50.70
2022-08-14T22:08:58.173Z,50.70
2022-08-14T22:11:27.562Z,50.60
2022-08-14T22:14:02.105Z,50.70
2022-08-14T22:17:03.525Z,50.80
2022-08-14T22:19:43.235Z,50.80
2022-08-14T22:22:26.057Z,50.80
2022-08-14T22:25:00.116Z,50.80
2022-08-14T22:27:31.168Z,50.80
2022-08-14T22:30:01.711Z,50.80
2022-08-14T22:32:55.935Z,50.80
2022-08-14T22:35:19.246Z,50.80
2022-08-14T22:38:01.673Z,50.90
2022-08-14T22:41:01.079Z,50.90
2022-08-14T22:43:35.272Z,50.90
2022-08-14T22:46:06.245Z,50.90
2022-08-14T22:48:43.399Z,50.90
2022-08-14T22:51:13.412Z,50.90
2022-08-14T22:53:43.997Z,50.90
2022-08-14T22:56:20.142Z,50.90
2022-08-14T22:58:53.894Z,51.60
2022-08-14T23:01:56.398Z,51.00
2022-08-14T23:04:34.373Z,51.00
2022-08-14T23:07:05.295Z,51.00
2022-08-14T23:09:38.615Z,51.00
2022-08-14T23:12:27.618Z,51.00
2022-08-14T23:14:57.612Z,51.00
2022-08-14T23:17:26.489Z,51.00
2022-08-14T23:19:56.222Z,51.00
2022-08-14T23:22:26.159Z,51.00
2022-08-14T23:24:57.725Z,51.00
2022-08-14T23:27:31.968Z,51.10
2022-08-14T23:30:34.013Z,51.10
2022-08-14T23:33:04.525Z,51.10
2022-08-14T23:35:34.382Z,51.00
2022-08-14T23:38:03.086Z,51.00
2022-08-14T23:40:32.723Z,50.90
2022-08-14T23:43:03.362Z,51.00
2022-08-14T23:45:37.147Z,51.00
2022-08-14T23:48:09.816Z,51.00
2022-08-14T23:50:41.511Z,51.00
2022-08-14T23:53:28.392Z,51.00
2022-08-14T23:56:09.079Z,51.00
2022-08-14T23:58:38.301Z,51.00
